Mauldin, South Carolina
Current Conditions -  °F | °C
As of 5:15 AM on Wednesday 26 Nov 2014 (Local Time) from KGYH Reporting Station
Moderate Rain Moderate Rain  
Wind Chill: 37°   Ceiling: 500
Heat Index: 43°   Visibility: 10mi
Dew Point: 43°   Wind: 9mph
Humidity: 100%   Direction: 80°E
Pressure: 29.93"   Gusts: NA
Location:  34.78°N, 82.31°W
Report Text: KGYH 261015Z AUTO 08008KT 10SM RA BKN005 BKN010 OVC041 06/06 A2993 RMK AO2 P0001
Loading
Personal Weather Stations






























Interactive Weather Map New forecast layout! Learn more

10-Day Weather Forecast

Advertisements
Track Severe Weather on mobile